sensor_id;sensor_type;location;lat;lon;timestamp;temperature;humidity
22544;DHT22;11438;52.044;8.716;2023-04-03T00:01:20;7.50;86.10
22544;DHT22;11438;52.044;8.716;2023-04-03T00:03:46;7.40;86.30
22544;DHT22;11438;52.044;8.716;2023-04-03T00:06:12;7.40;86.10
22544;DHT22;11438;52.044;8.716;2023-04-03T00:08:38;7.40;86.00
22544;DHT22;11438;52.044;8.716;2023-04-03T00:11:05;7.30;86.00
22544;DHT22;11438;52.044;8.716;2023-04-03T00:13:31;7.30;85.90
22544;DHT22;11438;52.044;8.716;2023-04-03T00:15:57;7.30;86.10
22544;DHT22;11438;52.044;8.716;2023-04-03T00:18:22;7.30;86.10
22544;DHT22;11438;52.044;8.716;2023-04-03T00:20:48;7.20;86.10
22544;DHT22;11438;52.044;8.716;2023-04-03T00:23:14;7.20;87.10
22544;DHT22;11438;52.044;8.716;2023-04-03T00:25:40;7.20;86.40
22544;DHT22;11438;52.044;8.716;2023-04-03T00:28:05;7.10;86.40
22544;DHT22;11438;52.044;8.716;2023-04-03T00:30:31;7.10;86.40
22544;DHT22;11438;52.044;8.716;2023-04-03T00:32:57;7.10;86.40
22544;DHT22;11438;52.044;8.716;2023-04-03T00:35:23;7.10;86.50
22544;DHT22;11438;52.044;8.716;2023-04-03T00:37:51;7.00;86.50
22544;DHT22;11438;52.044;8.716;2023-04-03T00:40:17;7.00;86.60
22544;DHT22;11438;52.044;8.716;2023-04-03T00:42:44;7.00;86.70
22544;DHT22;11438;52.044;8.716;2023-04-03T00:47:37;6.90;86.80
22544;DHT22;11438;52.044;8.716;2023-04-03T00:50:04;6.90;86.70
22544;DHT22;11438;52.044;8.716;2023-04-03T00:52:30;6.90;86.80
22544;DHT22;11438;52.044;8.716;2023-04-03T00:55:02;6.80;86.80
22544;DHT22;11438;52.044;8.716;2023-04-03T00:57:30;6.80;86.80
22544;DHT22;11438;52.044;8.716;2023-04-03T01:00:00;6.80;86.70
22544;DHT22;11438;52.044;8.716;2023-04-03T01:02:26;6.80;86.80
22544;DHT22;11438;52.044;8.716;2023-04-03T01:04:52;6.70;87.00
22544;DHT22;11438;52.044;8.716;2023-04-03T01:07:27;6.70;86.90
22544;DHT22;11438;52.044;8.716;2023-04-03T01:09:58;6.70;87.10
22544;DHT22;11438;52.044;8.716;2023-04-03T01:12:27;6.60;86.90
22544;DHT22;11438;52.044;8.716;2023-04-03T01:14:55;6.60;86.90
22544;DHT22;11438;52.044;8.716;2023-04-03T01:25:56;6.50;87.20
22544;DHT22;11438;52.044;8.716;2023-04-03T01:28:28;6.50;87.30
22544;DHT22;11438;52.044;8.716;2023-04-03T01:31:26;6.40;87.20
22544;DHT22;11438;52.044;8.716;2023-04-03T01:33:54;6.40;87.50
22544;DHT22;11438;52.044;8.716;2023-04-03T01:36:26;6.40;87.50
22544;DHT22;11438;52.044;8.716;2023-04-03T01:38:53;6.40;87.70
22544;DHT22;11438;52.044;8.716;2023-04-03T01:41:19;6.40;87.80
22544;DHT22;11438;52.044;8.716;2023-04-03T01:43:46;6.30;87.80
22544;DHT22;11438;52.044;8.716;2023-04-03T01:46:12;6.30;87.90
22544;DHT22;11438;52.044;8.716;2023-04-03T01:48:38;6.30;87.80
22544;DHT22;11438;52.044;8.716;2023-04-03T01:51:03;6.20;87.70
22544;DHT22;11438;52.044;8.716;2023-04-03T01:53:29;6.20;87.90
22544;DHT22;11438;52.044;8.716;2023-04-03T01:55:54;6.20;88.10
22544;DHT22;11438;52.044;8.716;2023-04-03T01:58:20;6.20;88.00
22544;DHT22;11438;52.044;8.716;2023-04-03T02:00:45;6.20;88.10
22544;DHT22;11438;52.044;8.716;2023-04-03T02:03:11;6.10;88.20
22544;DHT22;11438;52.044;8.716;2023-04-03T02:05:37;6.10;88.20
22544;DHT22;11438;52.044;8.716;2023-04-03T02:08:03;6.10;88.30
22544;DHT22;11438;52.044;8.716;2023-04-03T02:10:29;6.10;88.20
22544;DHT22;11438;52.044;8.716;2023-04-03T02:12:54;6.00;88.20
22544;DHT22;11438;52.044;8.716;2023-04-03T02:15:20;6.00;88.20
22544;DHT22;11438;52.044;8.716;2023-04-03T02:17:46;6.00;88.30
22544;DHT22;11438;52.044;8.716;2023-04-03T02:20:11;6.00;88.60
22544;DHT22;11438;52.044;8.716;2023-04-03T02:22:37;5.90;88.60
22544;DHT22;11438;52.044;8.716;2023-04-03T02:25:03;5.90;88.60
22544;DHT22;11438;52.044;8.716;2023-04-03T02:27:28;5.90;88.50
22544;DHT22;11438;52.044;8.716;2023-04-03T02:29:54;5.90;88.60
22544;DHT22;11438;52.044;8.716;2023-04-03T02:32:20;5.90;88.90
22544;DHT22;11438;52.044;8.716;2023-04-03T02:34:45;5.80;88.70
22544;DHT22;11438;52.044;8.716;2023-04-03T02:37:11;5.80;88.90
22544;DHT22;11438;52.044;8.716;2023-04-03T02:39:36;5.80;89.00
22544;DHT22;11438;52.044;8.716;2023-04-03T02:42:02;5.80;88.90
22544;DHT22;11438;52.044;8.716;2023-04-03T02:44:27;5.70;88.90
22544;DHT22;11438;52.044;8.716;2023-04-03T02:46:53;5.80;89.20
22544;DHT22;11438;52.044;8.716;2023-04-03T02:49:19;5.70;89.00
22544;DHT22;11438;52.044;8.716;2023-04-03T02:51:44;5.70;89.10
22544;DHT22;11438;52.044;8.716;2023-04-03T02:54:11;5.70;89.20
22544;DHT22;11438;52.044;8.716;2023-04-03T02:56:36;5.60;89.20
22544;DHT22;11438;52.044;8.716;2023-04-03T02:59:02;5.60;89.40
22544;DHT22;11438;52.044;8.716;2023-04-03T03:01:27;5.60;89.60
22544;DHT22;11438;52.044;8.716;2023-04-03T03:03:57;5.60;89.60
22544;DHT22;11438;52.044;8.716;2023-04-03T03:06:22;5.60;89.70
22544;DHT22;11438;52.044;8.716;2023-04-03T03:08:48;5.50;89.60
22544;DHT22;11438;52.044;8.716;2023-04-03T03:11:13;5.50;89.70
22544;DHT22;11438;52.044;8.716;2023-04-03T03:13:39;5.50;89.80
22544;DHT22;11438;52.044;8.716;2023-04-03T03:16:05;5.50;90.00
22544;DHT22;11438;52.044;8.716;2023-04-03T03:18:31;5.50;90.00
22544;DHT22;11438;52.044;8.716;2023-04-03T03:20:58;5.40;89.80
22544;DHT22;11438;52.044;8.716;2023-04-03T03:23:25;5.50;89.90
22544;DHT22;11438;52.044;8.716;2023-04-03T03:26:10;5.40;90.00
22544;DHT22;11438;52.044;8.716;2023-04-03T03:28:37;5.40;90.00
22544;DHT22;11438;52.044;8.716;2023-04-03T03:31:03;5.40;90.00
22544;DHT22;11438;52.044;8.716;2023-04-03T03:33:29;5.30;90.00
22544;DHT22;11438;52.044;8.716;2023-04-03T03:35:55;5.30;90.00
22544;DHT22;11438;52.044;8.716;2023-04-03T03:38:21;5.30;90.10
22544;DHT22;11438;52.044;8.716;2023-04-03T03:40:48;5.20;90.10
22544;DHT22;11438;52.044;8.716;2023-04-03T03:43:14;5.20;90.20
22544;DHT22;11438;52.044;8.716;2023-04-03T03:45:39;5.20;90.20
22544;DHT22;11438;52.044;8.716;2023-04-03T03:48:05;5.20;90.30
22544;DHT22;11438;52.044;8.716;2023-04-03T03:50:30;5.20;90.30
22544;DHT22;11438;52.044;8.716;2023-04-03T03:52:56;5.10;90.20
22544;DHT22;11438;52.044;8.716;2023-04-03T03:55:22;5.10;90.30
22544;DHT22;11438;52.044;8.716;2023-04-03T03:57:47;5.20;90.30
22544;DHT22;11438;52.044;8.716;2023-04-03T04:00:13;5.10;90.30
22544;DHT22;11438;52.044;8.716;2023-04-03T04:02:39;5.10;90.30
22544;DHT22;11438;52.044;8.716;2023-04-03T04:05:04;5.00;90.70
22544;DHT22;11438;52.044;8.716;2023-04-03T04:07:30;5.00;90.40
22544;DHT22;11438;52.044;8.716;2023-04-03T04:09:55;5.00;90.50
22544;DHT22;11438;52.044;8.716;2023-04-03T04:12:21;4.90;90.40
22544;DHT22;11438;52.044;8.716;2023-04-03T04:14:47;5.00;90.50
22544;DHT22;11438;52.044;8.716;2023-04-03T04:17:13;4.90;90.40
22544;DHT22;11438;52.044;8.716;2023-04-03T04:19:38;4.90;90.50
22544;DHT22;11438;52.044;8.716;2023-04-03T04:22:04;4.90;90.50
22544;DHT22;11438;52.044;8.716;2023-04-03T04:24:29;4.90;90.50
22544;DHT22;11438;52.044;8.716;2023-04-03T04:26:55;4.80;90.50
22544;DHT22;11438;52.044;8.716;2023-04-03T04:29:21;4.80;90.60
22544;DHT22;11438;52.044;8.716;2023-04-03T04:31:46;4.80;90.50
22544;DHT22;11438;52.044;8.716;2023-04-03T04:34:12;4.80;90.50
22544;DHT22;11438;52.044;8.716;2023-04-03T04:36:39;4.80;90.60
22544;DHT22;11438;52.044;8.716;2023-04-03T04:39:05;4.80;90.60
22544;DHT22;11438;52.044;8.716;2023-04-03T04:41:31;4.70;90.60
22544;DHT22;11438;52.044;8.716;2023-04-03T04:43:56;4.70;90.70
22544;DHT22;11438;52.044;8.716;2023-04-03T04:46:22;4.70;90.70
22544;DHT22;11438;52.044;8.716;2023-04-03T04:48:48;4.70;90.70
22544;DHT22;11438;52.044;8.716;2023-04-03T04:51:14;4.70;90.80
22544;DHT22;11438;52.044;8.716;2023-04-03T04:53:40;4.60;90.80
22544;DHT22;11438;52.044;8.716;2023-04-03T04:56:06;4.60;90.80
22544;DHT22;11438;52.044;8.716;2023-04-03T04:58:32;4.60;90.90
22544;DHT22;11438;52.044;8.716;2023-04-03T05:01:02;4.60;90.90
22544;DHT22;11438;52.044;8.716;2023-04-03T05:03:28;4.60;91.00
22544;DHT22;11438;52.044;8.716;2023-04-03T05:05:54;4.60;91.00
22544;DHT22;11438;52.044;8.716;2023-04-03T05:08:19;4.60;91.10
22544;DHT22;11438;52.044;8.716;2023-04-03T05:10:46;4.50;91.10
22544;DHT22;11438;52.044;8.716;2023-04-03T05:13:12;4.50;91.10
22544;DHT22;11438;52.044;8.716;2023-04-03T05:15:37;4.50;91.10
22544;DHT22;11438;52.044;8.716;2023-04-03T05:18:03;4.50;91.20
22544;DHT22;11438;52.044;8.716;2023-04-03T05:20:30;4.50;91.20
22544;DHT22;11438;52.044;8.716;2023-04-03T05:22:55;4.50;91.30
22544;DHT22;11438;52.044;8.716;2023-04-03T05:25:21;4.50;91.30
22544;DHT22;11438;52.044;8.716;2023-04-03T05:27:46;4.50;91.30
22544;DHT22;11438;52.044;8.716;2023-04-03T05:30:12;4.50;91.30
22544;DHT22;11438;52.044;8.716;2023-04-03T05:32:38;4.50;91.40
22544;DHT22;11438;52.044;8.716;2023-04-03T05:35:04;4.50;91.40
22544;DHT22;11438;52.044;8.716;2023-04-03T05:37:31;4.50;91.40
22544;DHT22;11438;52.044;8.716;2023-04-03T05:39:56;4.50;91.40
22544;DHT22;11438;52.044;8.716;2023-04-03T05:42:22;4.50;91.50
22544;DHT22;11438;52.044;8.716;2023-04-03T05:44:47;4.50;91.50
22544;DHT22;11438;52.044;8.716;2023-04-03T05:47:14;4.50;91.60
22544;DHT22;11438;52.044;8.716;2023-04-03T05:49:39;4.50;91.60
22544;DHT22;11438;52.044;8.716;2023-04-03T05:52:11;4.50;91.60
22544;DHT22;11438;52.044;8.716;2023-04-03T05:54:42;4.50;91.60
22544;DHT22;11438;52.044;8.716;2023-04-03T05:57:08;4.50;91.60
22544;DHT22;11438;52.044;8.716;2023-04-03T05:59:33;4.50;91.60
22544;DHT22;11438;52.044;8.716;2023-04-03T06:01:59;4.60;91.70
22544;DHT22;11438;52.044;8.716;2023-04-03T06:04:24;4.50;91.70
22544;DHT22;11438;52.044;8.716;2023-04-03T06:06:57;4.60;91.70
22544;DHT22;11438;52.044;8.716;2023-04-03T06:09:26;4.60;91.80
22544;DHT22;11438;52.044;8.716;2023-04-03T06:11:52;4.60;91.80
22544;DHT22;11438;52.044;8.716;2023-04-03T06:14:18;4.60;91.70
22544;DHT22;11438;52.044;8.716;2023-04-03T06:16:44;4.60;91.70
22544;DHT22;11438;52.044;8.716;2023-04-03T06:19:11;4.60;91.70
22544;DHT22;11438;52.044;8.716;2023-04-03T06:21:37;4.70;91.80
22544;DHT22;11438;52.044;8.716;2023-04-03T06:24:03;4.70;91.80
22544;DHT22;11438;52.044;8.716;2023-04-03T06:26:29;4.70;91.80
22544;DHT22;11438;52.044;8.716;2023-04-03T06:28:55;4.70;91.80
22544;DHT22;11438;52.044;8.716;2023-04-03T06:31:21;4.70;91.90
22544;DHT22;11438;52.044;8.716;2023-04-03T06:33:47;4.80;91.90
22544;DHT22;11438;52.044;8.716;2023-04-03T06:36:13;4.80;91.80
22544;DHT22;11438;52.044;8.716;2023-04-03T06:38:38;4.80;91.80
22544;DHT22;11438;52.044;8.716;2023-04-03T06:41:04;4.90;91.70
22544;DHT22;11438;52.044;8.716;2023-04-03T06:43:30;4.90;91.60
22544;DHT22;11438;52.044;8.716;2023-04-03T06:45:57;4.90;91.60
22544;DHT22;11438;52.044;8.716;2023-04-03T06:48:22;5.00;91.50
22544;DHT22;11438;52.044;8.716;2023-04-03T06:50:48;5.00;91.50
22544;DHT22;11438;52.044;8.716;2023-04-03T06:53:14;5.00;91.40
22544;DHT22;11438;52.044;8.716;2023-04-03T06:55:40;5.00;91.40
22544;DHT22;11438;52.044;8.716;2023-04-03T06:58:06;5.10;91.20
22544;DHT22;11438;52.044;8.716;2023-04-03T07:00:32;5.20;91.10
22544;DHT22;11438;52.044;8.716;2023-04-03T07:02:58;5.20;91.10
22544;DHT22;11438;52.044;8.716;2023-04-03T07:05:24;5.20;90.90
22544;DHT22;11438;52.044;8.716;2023-04-03T07:07:50;5.20;90.90
22544;DHT22;11438;52.044;8.716;2023-04-03T07:10:16;5.30;91.20
22544;DHT22;11438;52.044;8.716;2023-04-03T07:12:42;5.40;90.60
22544;DHT22;11438;52.044;8.716;2023-04-03T07:15:08;5.40;90.50
22544;DHT22;11438;52.044;8.716;2023-04-03T07:17:34;5.40;90.60
22544;DHT22;11438;52.044;8.716;2023-04-03T07:20:01;5.50;90.40
22544;DHT22;11438;52.044;8.716;2023-04-03T07:22:27;5.50;90.20
22544;DHT22;11438;52.044;8.716;2023-04-03T07:24:53;5.50;90.20
22544;DHT22;11438;52.044;8.716;2023-04-03T07:27:18;5.60;90.20
22544;DHT22;11438;52.044;8.716;2023-04-03T07:29:44;5.70;90.20
22544;DHT22;11438;52.044;8.716;2023-04-03T07:32:10;5.70;90.20
22544;DHT22;11438;52.044;8.716;2023-04-03T07:34:36;5.80;90.20
22544;DHT22;11438;52.044;8.716;2023-04-03T07:37:02;5.80;90.20
22544;DHT22;11438;52.044;8.716;2023-04-03T07:39:28;5.90;90.20
22544;DHT22;11438;52.044;8.716;2023-04-03T07:41:54;6.00;90.20
22544;DHT22;11438;52.044;8.716;2023-04-03T07:44:21;6.00;90.00
22544;DHT22;11438;52.044;8.716;2023-04-03T07:46:47;6.00;89.50
22544;DHT22;11438;52.044;8.716;2023-04-03T07:49:13;6.10;89.10
22544;DHT22;11438;52.044;8.716;2023-04-03T07:51:39;6.20;88.80
22544;DHT22;11438;52.044;8.716;2023-04-03T07:54:05;6.20;88.60
22544;DHT22;11438;52.044;8.716;2023-04-03T07:56:30;6.30;88.90
22544;DHT22;11438;52.044;8.716;2023-04-03T07:58:57;6.30;89.00
22544;DHT22;11438;52.044;8.716;2023-04-03T08:01:22;6.40;88.70
22544;DHT22;11438;52.044;8.716;2023-04-03T08:03:48;6.40;87.80
22544;DHT22;11438;52.044;8.716;2023-04-03T08:06:13;6.50;87.60
22544;DHT22;11438;52.044;8.716;2023-04-03T08:08:40;6.50;87.40
22544;DHT22;11438;52.044;8.716;2023-04-03T08:11:06;6.50;86.80
22544;DHT22;11438;52.044;8.716;2023-04-03T08:13:33;6.60;87.00
22544;DHT22;11438;52.044;8.716;2023-04-03T08:16:07;6.60;87.10
22544;DHT22;11438;52.044;8.716;2023-04-03T08:18:33;6.60;87.20
22544;DHT22;11438;52.044;8.716;2023-04-03T08:20:58;6.60;87.20
22544;DHT22;11438;52.044;8.716;2023-04-03T08:23:24;6.70;86.90
22544;DHT22;11438;52.044;8.716;2023-04-03T08:25:50;6.70;87.00
22544;DHT22;11438;52.044;8.716;2023-04-03T08:28:16;6.70;87.60
22544;DHT22;11438;52.044;8.716;2023-04-03T08:30:42;6.80;87.70
22544;DHT22;11438;52.044;8.716;2023-04-03T08:33:08;6.80;88.00
22544;DHT22;11438;52.044;8.716;2023-04-03T08:35:38;6.90;87.90
22544;DHT22;11438;52.044;8.716;2023-04-03T08:38:04;6.90;87.50
22544;DHT22;11438;52.044;8.716;2023-04-03T08:40:29;7.00;87.20
22544;DHT22;11438;52.044;8.716;2023-04-03T08:43:18;7.00;86.90
22544;DHT22;11438;52.044;8.716;2023-04-03T08:45:51;7.00;86.70
22544;DHT22;11438;52.044;8.716;2023-04-03T08:48:31;7.10;86.80
22544;DHT22;11438;52.044;8.716;2023-04-03T08:51:00;7.10;86.40
22544;DHT22;11438;52.044;8.716;2023-04-03T08:53:30;7.20;86.50
22544;DHT22;11438;52.044;8.716;2023-04-03T08:55:58;7.20;85.80
22544;DHT22;11438;52.044;8.716;2023-04-03T08:58:27;7.20;85.60
22544;DHT22;11438;52.044;8.716;2023-04-03T09:01:05;7.30;86.10
22544;DHT22;11438;52.044;8.716;2023-04-03T09:03:37;7.30;85.80
22544;DHT22;11438;52.044;8.716;2023-04-03T09:06:19;7.40;86.30
22544;DHT22;11438;52.044;8.716;2023-04-03T09:09:12;7.40;85.70
22544;DHT22;11438;52.044;8.716;2023-04-03T09:12:24;7.50;86.20
22544;DHT22;11438;52.044;8.716;2023-04-03T09:20:37;7.60;84.90
22544;DHT22;11438;52.044;8.716;2023-04-03T09:23:42;7.60;85.00
22544;DHT22;11438;52.044;8.716;2023-04-03T09:26:24;7.70;84.90
22544;DHT22;11438;52.044;8.716;2023-04-03T09:28:55;7.80;84.40
22544;DHT22;11438;52.044;8.716;2023-04-03T09:31:27;7.80;84.40
22544;DHT22;11438;52.044;8.716;2023-04-03T09:33:58;7.80;84.60
22544;DHT22;11438;52.044;8.716;2023-04-03T09:36:44;7.90;84.60
22544;DHT22;11438;52.044;8.716;2023-04-03T09:39:14;7.90;85.50
22544;DHT22;11438;52.044;8.716;2023-04-03T09:41:41;8.00;85.00
22544;DHT22;11438;52.044;8.716;2023-04-03T09:44:21;8.10;84.80
22544;DHT22;11438;52.044;8.716;2023-04-03T09:46:47;8.10;84.70
22544;DHT22;11438;52.044;8.716;2023-04-03T09:49:12;8.20;84.50
22544;DHT22;11438;52.044;8.716;2023-04-03T09:51:38;8.30;85.00
22544;DHT22;11438;52.044;8.716;2023-04-03T09:54:33;8.40;85.00
22544;DHT22;11438;52.044;8.716;2023-04-03T09:57:12;8.50;84.80
22544;DHT22;11438;52.044;8.716;2023-04-03T09:59:43;8.60;83.90
22544;DHT22;11438;52.044;8.716;2023-04-03T10:04:41;8.80;83.70
22544;DHT22;11438;52.044;8.716;2023-04-03T10:09:59;8.90;82.80
22544;DHT22;11438;52.044;8.716;2023-04-03T10:12:25;9.00;82.50
22544;DHT22;11438;52.044;8.716;2023-04-03T10:14:54;9.00;81.00
22544;DHT22;11438;52.044;8.716;2023-04-03T10:20:21;9.10;80.30
22544;DHT22;11438;52.044;8.716;2023-04-03T10:28:47;9.10;77.30
22544;DHT22;11438;52.044;8.716;2023-04-03T10:31:29;9.10;78.00
22544;DHT22;11438;52.044;8.716;2023-04-03T10:34:24;9.20;79.00
22544;DHT22;11438;52.044;8.716;2023-04-03T10:37:13;9.30;78.70
22544;DHT22;11438;52.044;8.716;2023-04-03T10:45:08;9.50;79.60
22544;DHT22;11438;52.044;8.716;2023-04-03T10:50:37;9.70;79.20
22544;DHT22;11438;52.044;8.716;2023-04-03T10:53:21;9.70;79.60
22544;DHT22;11438;52.044;8.716;2023-04-03T10:56:02;9.80;78.10
22544;DHT22;11438;52.044;8.716;2023-04-03T10:58:34;9.90;78.50
22544;DHT22;11438;52.044;8.716;2023-04-03T11:01:07;10.00;77.00
22544;DHT22;11438;52.044;8.716;2023-04-03T11:03:41;10.10;76.20
22544;DHT22;11438;52.044;8.716;2023-04-03T11:06:10;10.10;76.00
22544;DHT22;11438;52.044;8.716;2023-04-03T11:08:51;10.10;75.20
22544;DHT22;11438;52.044;8.716;2023-04-03T11:11:32;10.10;74.60
22544;DHT22;11438;52.044;8.716;2023-04-03T11:16:47;10.10;75.00
22544;DHT22;11438;52.044;8.716;2023-04-03T11:19:21;10.10;75.20
22544;DHT22;11438;52.044;8.716;2023-04-03T11:22:04;10.00;75.10
22544;DHT22;11438;52.044;8.716;2023-04-03T11:24:36;10.00;75.40
22544;DHT22;11438;52.044;8.716;2023-04-03T11:27:05;10.00;74.90
22544;DHT22;11438;52.044;8.716;2023-04-03T11:29:34;10.00;75.30
22544;DHT22;11438;52.044;8.716;2023-04-03T11:32:20;9.90;75.70
22544;DHT22;11438;52.044;8.716;2023-04-03T11:34:53;9.90;75.60
22544;DHT22;11438;52.044;8.716;2023-04-03T11:37:34;10.00;75.40
22544;DHT22;11438;52.044;8.716;2023-04-03T11:40:08;10.00;75.60
22544;DHT22;11438;52.044;8.716;2023-04-03T11:42:48;10.00;76.40
22544;DHT22;11438;52.044;8.716;2023-04-03T11:48:07;10.10;76.90
22544;DHT22;11438;52.044;8.716;2023-04-03T11:50:51;10.20;75.90
22544;DHT22;11438;52.044;8.716;2023-04-03T11:58:19;10.40;75.10
22544;DHT22;11438;52.044;8.716;2023-04-03T12:13:41;10.70;73.80
22544;DHT22;11438;52.044;8.716;2023-04-03T12:19:00;10.80;74.40
22544;DHT22;11438;52.044;8.716;2023-04-03T12:26:47;11.10;72.80
22544;DHT22;11438;52.044;8.716;2023-04-03T12:35:09;11.50;73.40
22544;DHT22;11438;52.044;8.716;2023-04-03T12:40:46;11.70;70.80
22544;DHT22;11438;52.044;8.716;2023-04-03T12:48:27;12.10;69.80
22544;DHT22;11438;52.044;8.716;2023-04-03T12:50:54;12.10;68.70
22544;DHT22;11438;52.044;8.716;2023-04-03T12:53:24;12.20;69.60
22544;DHT22;11438;52.044;8.716;2023-04-03T12:55:58;12.20;66.80
22544;DHT22;11438;52.044;8.716;2023-04-03T12:58:43;12.20;66.30
22544;DHT22;11438;52.044;8.716;2023-04-03T13:01:14;12.30;67.70
22544;DHT22;11438;52.044;8.716;2023-04-03T13:03:43;12.20;67.70
22544;DHT22;11438;52.044;8.716;2023-04-03T13:06:27;12.20;66.10
22544;DHT22;11438;52.044;8.716;2023-04-03T13:08:57;12.20;66.80
22544;DHT22;11438;52.044;8.716;2023-04-03T13:11:25;12.10;65.70
22544;DHT22;11438;52.044;8.716;2023-04-03T13:13:59;12.10;65.70
22544;DHT22;11438;52.044;8.716;2023-04-03T13:16:25;12.00;65.30
22544;DHT22;11438;52.044;8.716;2023-04-03T13:18:53;11.90;65.10
22544;DHT22;11438;52.044;8.716;2023-04-03T13:21:25;11.80;65.80
22544;DHT22;11438;52.044;8.716;2023-04-03T13:23:54;11.70;65.00
22544;DHT22;11438;52.044;8.716;2023-04-03T13:26:24;11.60;65.60
22544;DHT22;11438;52.044;8.716;2023-04-03T13:28:51;11.60;66.30
22544;DHT22;11438;52.044;8.716;2023-04-03T13:31:27;11.50;66.40
22544;DHT22;11438;52.044;8.716;2023-04-03T13:34:13;11.40;65.90
22544;DHT22;11438;52.044;8.716;2023-04-03T13:36:54;11.30;65.40
22544;DHT22;11438;52.044;8.716;2023-04-03T13:39:39;11.30;66.50
22544;DHT22;11438;52.044;8.716;2023-04-03T13:42:25;11.30;66.80
22544;DHT22;11438;52.044;8.716;2023-04-03T13:47:45;11.40;68.10
22544;DHT22;11438;52.044;8.716;2023-04-03T13:52:49;11.60;67.60
22544;DHT22;11438;52.044;8.716;2023-04-03T13:55:28;11.60;68.00
22544;DHT22;11438;52.044;8.716;2023-04-03T13:58:20;11.70;67.40
22544;DHT22;11438;52.044;8.716;2023-04-03T14:00:55;11.80;67.50
22544;DHT22;11438;52.044;8.716;2023-04-03T14:06:05;12.00;66.50
22544;DHT22;11438;52.044;8.716;2023-04-03T14:08:31;12.10;67.10
22544;DHT22;11438;52.044;8.716;2023-04-03T14:10:57;12.10;66.30
22544;DHT22;11438;52.044;8.716;2023-04-03T14:13:22;12.20;66.70
22544;DHT22;11438;52.044;8.716;2023-04-03T14:15:48;12.30;66.20
22544;DHT22;11438;52.044;8.716;2023-04-03T14:18:17;12.40;66.10
22544;DHT22;11438;52.044;8.716;2023-04-03T14:20:44;12.40;65.00
22544;DHT22;11438;52.044;8.716;2023-04-03T14:23:10;12.50;64.40
22544;DHT22;11438;52.044;8.716;2023-04-03T14:25:36;12.50;64.00
22544;DHT22;11438;52.044;8.716;2023-04-03T14:28:14;12.60;62.40
22544;DHT22;11438;52.044;8.716;2023-04-03T14:30:40;12.60;62.70
22544;DHT22;11438;52.044;8.716;2023-04-03T14:33:06;12.60;63.10
22544;DHT22;11438;52.044;8.716;2023-04-03T14:35:32;12.60;64.20
22544;DHT22;11438;52.044;8.716;2023-04-03T14:37:57;12.60;64.00
22544;DHT22;11438;52.044;8.716;2023-04-03T14:40:26;12.60;63.90
22544;DHT22;11438;52.044;8.716;2023-04-03T14:42:52;12.60;62.50
22544;DHT22;11438;52.044;8.716;2023-04-03T14:45:20;12.60;61.40
22544;DHT22;11438;52.044;8.716;2023-04-03T14:47:49;12.60;61.90
22544;DHT22;11438;52.044;8.716;2023-04-03T14:50:18;12.60;61.60
22544;DHT22;11438;52.044;8.716;2023-04-03T14:52:46;12.50;60.30
22544;DHT22;11438;52.044;8.716;2023-04-03T14:55:15;12.50;60.40
22544;DHT22;11438;52.044;8.716;2023-04-03T14:57:40;12.40;60.20
22544;DHT22;11438;52.044;8.716;2023-04-03T15:00:12;12.30;60.40
22544;DHT22;11438;52.044;8.716;2023-04-03T15:02:38;12.30;61.50
22544;DHT22;11438;52.044;8.716;2023-04-03T15:05:06;12.20;60.80
22544;DHT22;11438;52.044;8.716;2023-04-03T15:07:38;12.10;59.90
22544;DHT22;11438;52.044;8.716;2023-04-03T15:10:19;12.10;59.50
22544;DHT22;11438;52.044;8.716;2023-04-03T15:12:47;12.00;61.00
22544;DHT22;11438;52.044;8.716;2023-04-03T15:15:13;12.00;61.50
22544;DHT22;11438;52.044;8.716;2023-04-03T15:17:40;11.90;61.90
22544;DHT22;11438;52.044;8.716;2023-04-03T15:20:15;11.90;62.00
22544;DHT22;11438;52.044;8.716;2023-04-03T15:22:41;12.00;64.00
22544;DHT22;11438;52.044;8.716;2023-04-03T15:25:08;12.00;63.10
22544;DHT22;11438;52.044;8.716;2023-04-03T15:27:34;12.00;62.90
22544;DHT22;11438;52.044;8.716;2023-04-03T15:29:59;12.10;62.50
22544;DHT22;11438;52.044;8.716;2023-04-03T15:32:25;12.10;62.60
22544;DHT22;11438;52.044;8.716;2023-04-03T15:34:50;12.10;62.50
22544;DHT22;11438;52.044;8.716;2023-04-03T15:37:16;12.10;61.70
22544;DHT22;11438;52.044;8.716;2023-04-03T15:39:41;12.10;62.00
22544;DHT22;11438;52.044;8.716;2023-04-03T15:42:07;12.10;61.00
22544;DHT22;11438;52.044;8.716;2023-04-03T15:44:34;12.10;61.50
22544;DHT22;11438;52.044;8.716;2023-04-03T15:47:00;12.20;62.50
22544;DHT22;11438;52.044;8.716;2023-04-03T15:49:26;12.30;61.60
22544;DHT22;11438;52.044;8.716;2023-04-03T15:51:52;12.50;61.40
22544;DHT22;11438;52.044;8.716;2023-04-03T15:54:18;12.70;61.40
22544;DHT22;11438;52.044;8.716;2023-04-03T15:56:43;12.90;61.20
22544;DHT22;11438;52.044;8.716;2023-04-03T15:59:09;13.00;60.70
22544;DHT22;11438;52.044;8.716;2023-04-03T16:01:36;13.10;60.30
22544;DHT22;11438;52.044;8.716;2023-04-03T16:04:02;13.30;60.00
22544;DHT22;11438;52.044;8.716;2023-04-03T16:06:28;13.50;60.50
22544;DHT22;11438;52.044;8.716;2023-04-03T16:08:55;13.70;61.50
22544;DHT22;11438;52.044;8.716;2023-04-03T16:11:26;14.00;61.50
22544;DHT22;11438;52.044;8.716;2023-04-03T16:13:55;14.10;61.20
22544;DHT22;11438;52.044;8.716;2023-04-03T16:16:22;14.20;60.30
22544;DHT22;11438;52.044;8.716;2023-04-03T16:18:48;14.40;59.00
22544;DHT22;11438;52.044;8.716;2023-04-03T16:21:15;14.30;57.90
22544;DHT22;11438;52.044;8.716;2023-04-03T16:23:41;14.30;56.30
22544;DHT22;11438;52.044;8.716;2023-04-03T16:26:07;14.20;56.20
22544;DHT22;11438;52.044;8.716;2023-04-03T16:28:32;14.00;55.60
22544;DHT22;11438;52.044;8.716;2023-04-03T16:31:00;13.80;55.90
22544;DHT22;11438;52.044;8.716;2023-04-03T16:33:26;13.60;55.90
22544;DHT22;11438;52.044;8.716;2023-04-03T16:35:52;13.40;56.20
22544;DHT22;11438;52.044;8.716;2023-04-03T16:38:18;13.20;56.40
22544;DHT22;11438;52.044;8.716;2023-04-03T16:40:45;13.10;57.00
22544;DHT22;11438;52.044;8.716;2023-04-03T16:43:10;13.10;58.40
22544;DHT22;11438;52.044;8.716;2023-04-03T16:45:36;13.10;58.30
22544;DHT22;11438;52.044;8.716;2023-04-03T16:48:02;13.10;58.70
22544;DHT22;11438;52.044;8.716;2023-04-03T16:50:27;13.20;58.80
22544;DHT22;11438;52.044;8.716;2023-04-03T16:52:53;13.20;58.20
22544;DHT22;11438;52.044;8.716;2023-04-03T16:55:18;13.20;58.70
22544;DHT22;11438;52.044;8.716;2023-04-03T16:57:45;13.10;58.10
22544;DHT22;11438;52.044;8.716;2023-04-03T17:00:11;13.10;58.40
22544;DHT22;11438;52.044;8.716;2023-04-03T17:02:37;13.10;58.90
22544;DHT22;11438;52.044;8.716;2023-04-03T17:05:03;13.10;58.50
22544;DHT22;11438;52.044;8.716;2023-04-03T17:07:28;13.00;57.80
22544;DHT22;11438;52.044;8.716;2023-04-03T17:09:54;13.00;56.40
22544;DHT22;11438;52.044;8.716;2023-04-03T17:12:20;12.90;56.90
22544;DHT22;11438;52.044;8.716;2023-04-03T17:14:46;12.80;56.50
22544;DHT22;11438;52.044;8.716;2023-04-03T17:17:13;12.80;57.90
22544;DHT22;11438;52.044;8.716;2023-04-03T17:19:39;12.60;57.90
22544;DHT22;11438;52.044;8.716;2023-04-03T17:22:07;12.50;57.60